Time;durP1;ratioP1;P1;durP2;ratioP2;P2;SDS_P1;SDS_P2;PMS_P1;PMS_P2;Temp;Humidity;BMP_temperature;BMP_pressure;BME280_temperature;BME280_humidity;BME280_pressure;Samples;Min_cycle;Max_cycle;Signal;HPM_P1;HPM_P2
2023/06/23 00:00:00;;;;;;;23.48;18.40;;;;;;;15.34;100.00;101696.53;4993594;28;20034;-67
2023/06/23 00:02:27;;;;;;;26.00;19.40;;;;;;;15.32;100.00;101703.59;4993425;28;20033;-68
2023/06/23 00:04:52;;;;;;;24.42;19.13;;;;;;;15.31;100.00;101713.09;4993930;28;20022;-67
2023/06/23 00:07:19;;;;;;;23.17;18.75;;;;;;;15.31;100.00;101713.09;4993586;28;20022;-68
2023/06/23 00:09:45;;;;;;;23.48;18.98;;;;;;;15.28;100.00;101712.56;4993572;28;20037;-69
2023/06/23 00:12:10;;;;;;;24.58;19.20;;;;;;;15.30;100.00;101712.28;4993402;28;20040;-68
2023/06/23 00:14:36;;;;;;;26.35;18.38;;;;;;;15.27;100.00;101712.91;4993244;28;20393;-68
2023/06/23 00:17:02;;;;;;;23.58;18.55;;;;;;;15.24;100.00;101719.09;4993216;28;20030;-67
2023/06/23 00:19:28;;;;;;;24.63;19.05;;;;;;;15.20;100.00;101727.28;4993366;28;20030;-67
2023/06/23 00:21:53;;;;;;;24.50;19.25;;;;;;;15.19;100.00;101722.03;4993215;28;20473;-67
2023/06/23 00:24:18;;;;;;;24.35;18.08;;;;;;;15.18;100.00;101729.53;4993258;28;20030;-67
2023/06/23 00:26:44;;;;;;;23.77;18.83;;;;;;;15.17;100.00;101727.91;4993096;28;20487;-68
2023/06/23 00:29:10;;;;;;;25.13;18.85;;;;;;;15.18;100.00;101732.34;4994379;28;20062;-67
2023/06/23 00:31:36;;;;;;;23.52;18.67;;;;;;;15.20;100.00;101732.03;5011255;28;20165;-67
2023/06/23 00:34:01;;;;;;;24.60;18.90;;;;;;;15.18;100.00;101734.31;5012807;28;20030;-68
2023/06/23 00:36:28;;;;;;;25.13;19.00;;;;;;;15.17;100.00;101746.59;5012583;28;20470;-68
2023/06/23 00:38:53;;;;;;;27.35;20.38;;;;;;;15.12;100.00;101751.13;5012718;28;20040;-67
2023/06/23 00:41:19;;;;;;;26.95;21.20;;;;;;;15.10;100.00;101747.03;5012870;28;20022;-70
2023/06/23 00:43:49;;;;;;;25.70;20.50;;;;;;;15.08;100.00;101749.28;5012563;28;20049;-69
2023/06/23 00:46:17;;;;;;;27.77;21.23;;;;;;;15.00;100.00;101745.31;5012448;28;20030;-69
2023/06/23 00:48:43;;;;;;;28.00;20.90;;;;;;;15.04;100.00;101754.69;5012517;28;20048;-70
2023/06/23 00:51:09;;;;;;;27.52;21.95;;;;;;;15.06;100.00;101751.59;5012478;28;20112;-69
2023/06/23 00:53:35;;;;;;;28.50;22.13;;;;;;;15.07;100.00;101767.16;5012082;28;20034;-69
2023/06/23 00:56:02;;;;;;;28.52;21.10;;;;;;;15.07;100.00;101770.78;5011615;28;20141;-69
2023/06/23 00:58:29;;;;;;;28.77;21.65;;;;;;;15.06;100.00;101773.91;5012466;28;20048;-69
2023/06/23 01:00:55;;;;;;;28.73;22.45;;;;;;;15.06;100.00;101785.03;5012288;28;20441;-69
2023/06/23 01:03:20;;;;;;;28.58;23.33;;;;;;;15.05;100.00;101786.97;5012629;28;20030;-69
2023/06/23 01:05:49;;;;;;;30.55;24.10;;;;;;;15.03;100.00;101792.03;5012239;28;20029;-70
2023/06/23 01:08:32;;;;;;;28.63;23.67;;;;;;;15.05;100.00;101788.97;5012159;28;20524;-68
2023/06/23 01:11:05;;;;;;;30.00;23.92;;;;;;;15.02;100.00;101790.38;5012044;28;20438;-68
2023/06/23 01:13:45;;;;;;;29.80;24.55;;;;;;;15.03;100.00;101788.44;5011937;28;20041;-69
2023/06/23 01:16:17;;;;;;;29.33;24.20;;;;;;;14.98;100.00;101784.63;5012071;28;20022;-69
2023/06/23 01:19:11;;;;;;;30.30;24.98;;;;;;;15.02;100.00;101792.38;5012056;28;20046;-69
2023/06/23 01:22:00;;;;;;;29.42;24.98;;;;;;;15.01;100.00;101799.91;5011962;28;20025;-68
2023/06/23 01:24:50;;;;;;;29.75;25.30;;;;;;;15.00;100.00;101803.84;5012254;28;20025;-68
2023/06/23 01:27:40;;;;;;;32.30;26.95;;;;;;;14.95;100.00;101801.16;5012113;28;20109;-69
2023/06/23 01:30:10;;;;;;;31.40;24.95;;;;;;;14.89;100.00;101797.66;5012239;28;20057;-68
2023/06/23 01:32:43;;;;;;;30.80;25.00;;;;;;;14.91;100.00;101792.59;5011871;28;20025;-68
2023/06/23 01:35:18;;;;;;;32.40;26.30;;;;;;;14.90;100.00;101796.50;5011834;28;20141;-68
2023/06/23 01:37:49;;;;;;;31.08;25.95;;;;;;;14.92;100.00;101796.22;5011186;28;20359;-68
2023/06/23 01:40:17;;;;;;;32.35;26.25;;;;;;;14.88;100.00;101806.31;5011732;28;20452;-68
2023/06/23 01:42:50;;;;;;;32.78;26.58;;;;;;;14.84;100.00;101808.06;5011731;28;20078;-69
2023/06/23 01:45:16;;;;;;;33.75;27.42;;;;;;;14.84;100.00;101811.69;5011837;28;20034;-67
2023/06/23 01:47:44;;;;;;;31.92;28.08;;;;;;;14.84;100.00;101833.13;5010140;28;20048;-69
2023/06/23 01:50:16;;;;;;;32.90;27.75;;;;;;;14.82;100.00;101830.69;5011708;28;20056;-69
2023/06/23 01:52:43;;;;;;;32.45;26.50;;;;;;;14.81;100.00;101835.44;5011691;28;20045;-68
2023/06/23 01:55:09;;;;;;;32.33;27.73;;;;;;;14.81;100.00;101831.81;5010201;28;20083;-68
2023/06/23 01:57:37;;;;;;;33.15;28.67;;;;;;;14.80;100.00;101828.22;5011559;28;20060;-68
2023/06/23 02:00:13;;;;;;;33.95;28.30;;;;;;;14.78;100.00;101830.47;5000379;28;20034;-69
2023/06/23 02:02:42;;;;;;;32.78;27.50;;;;;;;14.73;100.00;101826.97;4992216;28;20052;-69
2023/06/23 02:05:09;;;;;;;33.42;29.65;;;;;;;14.74;100.00;101840.56;4991967;28;20023;-68
2023/06/23 02:07:37;;;;;;;35.30;28.45;;;;;;;14.71;100.00;101841.22;4992567;28;20034;-69
2023/06/23 02:10:06;;;;;;;33.80;30.00;;;;;;;14.65;100.00;101843.25;4995745;28;20030;-69
2023/06/23 02:12:33;;;;;;;32.72;28.38;;;;;;;14.65;100.00;101850.75;4995593;28;20066;-69
2023/06/23 02:15:00;;;;;;;32.20;27.77;;;;;;;14.62;100.00;101849.44;4995340;28;20042;-69
2023/06/23 02:17:26;;;;;;;33.22;29.63;;;;;;;14.58;100.00;101839.22;4995353;28;20018;-69
2023/06/23 02:19:53;;;;;;;33.13;28.55;;;;;;;14.56;100.00;101858.19;4995470;28;20028;-70
2023/06/23 02:22:21;;;;;;;32.83;28.40;;;;;;;14.57;100.00;101851.47;4995542;28;20451;-68
2023/06/23 02:24:47;;;;;;;31.83;28.33;;;;;;;14.54;100.00;101858.50;4995568;28;20129;-69
2023/06/23 02:27:13;;;;;;;33.45;28.52;;;;;;;14.51;100.00;101859.94;4995595;28;20042;-69
2023/06/23 02:29:40;;;;;;;33.63;28.25;;;;;;;14.51;100.00;101859.94;4994155;28;20050;-68
2023/06/23 02:32:07;;;;;;;34.25;28.50;;;;;;;14.53;100.00;101869.97;4995328;28;20069;-69
2023/06/23 02:34:35;;;;;;;33.90;27.92;;;;;;;14.53;100.00;101872.75;4995133;28;20034;-68
2023/06/23 02:37:03;;;;;;;32.25;27.88;;;;;;;14.49;100.00;101866.97;4976006;28;20022;-68
2023/06/23 02:39:33;;;;;;;34.13;29.40;;;;;;;14.50;100.00;101882.50;4975679;28;20035;-68
2023/06/23 02:42:00;;;;;;;33.50;29.02;;;;;;;14.51;100.00;101889.75;4975685;28;20073;-68
2023/06/23 02:44:30;;;;;;;37.22;28.75;;;;;;;14.47;100.00;101897.06;4975591;28;20058;-68
2023/06/23 02:46:59;;;;;;;35.17;30.10;;;;;;;14.51;100.00;101909.22;4975588;28;20455;-69
2023/06/23 02:49:27;;;;;;;34.08;29.13;;;;;;;14.47;100.00;101892.31;4975538;28;20039;-68
2023/06/23 02:51:57;;;;;;;33.97;28.70;;;;;;;14.47;100.00;101900.66;4975624;28;20037;-69
2023/06/23 02:54:24;;;;;;;38.38;31.92;;;;;;;14.48;100.00;101904.28;4975543;28;20033;-69
2023/06/23 02:56:53;;;;;;;35.42;30.20;;;;;;;14.47;100.00;101899.84;4973819;28;20053;-69
2023/06/23 02:59:21;;;;;;;35.22;30.10;;;;;;;14.43;100.00;101904.38;4975422;28;20023;-68
2023/06/23 03:01:52;;;;;;;35.10;31.13;;;;;;;14.41;100.00;101907.47;4975441;28;20498;-69
2023/06/23 03:04:17;;;;;;;35.65;31.65;;;;;;;14.39;100.00;101912.50;4975204;28;20395;-68
2023/06/23 03:06:44;;;;;;;37.08;32.70;;;;;;;14.40;100.00;101910.56;4975305;28;20106;-69
2023/06/23 03:09:09;;;;;;;38.45;32.58;;;;;;;14.39;100.00;101914.50;4975163;28;20395;-69
2023/06/23 03:11:36;;;;;;;36.35;32.03;;;;;;;14.38;100.00;101910.03;4974896;28;20027;-69
2023/06/23 03:14:02;;;;;;;37.45;33.30;;;;;;;14.35;100.00;101909.53;4974908;28;20073;-68
2023/06/23 03:16:49;;;;;;;40.65;36.22;;;;;;;14.34;100.00;101913.44;4975036;28;20058;-69
2023/06/23 03:19:22;;;;;;;40.22;34.90;;;;;;;14.35;100.00;101917.06;4974551;28;20409;-68
2023/06/23 03:21:54;;;;;;;39.05;34.67;;;;;;;14.33;100.00;101908.19;4993930;28;20105;-68
2023/06/23 03:24:21;;;;;;;38.90;34.58;;;;;;;14.39;100.00;101920.06;4994054;28;20452;-68
2023/06/23 03:26:49;;;;;;;40.25;35.72;;;;;;;14.38;100.00;101912.84;4994434;28;20026;-69
2023/06/23 03:29:18;;;;;;;45.65;37.28;;;;;;;14.37;100.00;101913.97;4994000;28;20391;-69
2023/06/23 03:31:44;;;;;;;41.25;36.85;;;;;;;14.40;100.00;101916.94;4994218;28;20026;-69
2023/06/23 03:34:10;;;;;;;43.15;36.17;;;;;;;14.40;100.00;101921.72;4993981;28;20030;-68
2023/06/23 03:36:40;;;;;;;42.78;36.92;;;;;;;14.38;100.00;101915.63;4994025;28;20108;-69
2023/06/23 03:39:14;;;;;;;43.05;35.65;;;;;;;14.40;100.00;101930.06;4993962;28;20104;-69
2023/06/23 03:41:41;;;;;;;40.90;35.72;;;;;;;14.44;100.00;101943.06;4994099;28;20034;-68
2023/06/23 03:44:22;;;;;;;42.20;36.55;;;;;;;14.42;100.00;101941.69;4994081;28;20034;-69
2023/06/23 03:46:54;;;;;;;43.38;36.92;;;;;;;14.41;100.00;101937.25;4994150;28;20510;-69
2023/06/23 03:49:26;;;;;;;42.80;36.13;;;;;;;14.43;100.00;101941.41;4994010;28;20033;-68
2023/06/23 03:51:55;;;;;;;46.58;37.25;;;;;;;14.45;100.00;101944.69;4993784;28;20505;-69
2023/06/23 03:54:23;;;;;;;41.40;36.10;;;;;;;14.51;100.00;101948.22;4993618;28;20562;-69
2023/06/23 03:56:51;;;;;;;43.35;36.63;;;;;;;14.51;100.00;101937.91;4993657;28;20529;-69
2023/06/23 03:59:19;;;;;;;43.45;38.08;;;;;;;14.61;100.00;101944.44;4993714;28;20031;-69
2023/06/23 04:01:46;;;;;;;44.55;35.70;;;;;;;14.69;100.00;101949.31;4993703;28;20168;-69
2023/06/23 04:04:14;;;;;;;44.05;35.35;;;;;;;14.67;100.00;101946.00;4993403;28;20062;-69
2023/06/23 04:06:43;;;;;;;43.65;38.05;;;;;;;14.66;100.00;101953.56;4993499;28;20479;-69
2023/06/23 04:09:10;;;;;;;43.85;37.75;;;;;;;14.63;100.00;101956.09;4992311;28;20026;-69
2023/06/23 04:11:38;;;;;;;43.47;35.65;;;;;;;14.63;100.00;101956.09;4993431;28;20331;-68
2023/06/23 04:14:05;;;;;;;44.60;36.40;;;;;;;14.66;100.00;101967.47;4993333;28;20120;-69
2023/06/23 04:16:35;;;;;;;46.05;38.03;;;;;;;14.68;100.00;101969.94;4993078;28;20391;-68
2023/06/23 04:19:01;;;;;;;46.67;37.25;;;;;;;14.77;100.00;101978.44;4993366;28;20178;-68
2023/06/23 04:21:30;;;;;;;45.05;36.17;;;;;;;14.76;100.00;101974.81;4991704;28;20041;-68
2023/06/23 04:23:56;;;;;;;46.25;38.67;;;;;;;14.74;100.00;101967.88;4993130;28;20027;-69
2023/06/23 04:26:22;;;;;;;47.15;38.38;;;;;;;14.73;100.00;101971.81;4993246;28;20026;-69
2023/06/23 04:28:49;;;;;;;46.03;39.13;;;;;;;14.73;100.00;101975.44;4993121;28;20051;-68
2023/06/23 04:31:16;;;;;;;47.60;38.65;;;;;;;14.80;100.00;101981.41;4992044;28;20022;-68
2023/06/23 04:33:41;;;;;;;45.15;38.72;;;;;;;14.82;100.00;101981.94;4993008;28;20034;-68
2023/06/23 04:36:15;;;;;;;46.03;38.75;;;;;;;14.87;100.00;101985.75;4991473;28;20037;-69
2023/06/23 04:38:46;;;;;;;47.30;39.67;;;;;;;14.88;100.00;101990.19;4992928;28;20109;-69
2023/06/23 04:41:17;;;;;;;49.42;39.92;;;;;;;14.96;100.00;101992.25;4992823;28;20038;-69
2023/06/23 04:43:44;;;;;;;47.35;39.97;;;;;;;15.01;100.00;101994.97;4992745;28;20068;-68
2023/06/23 04:46:14;;;;;;;46.35;39.03;;;;;;;15.03;100.00;101992.69;4992840;28;20022;-70
2023/06/23 04:48:48;;;;;;;46.25;38.92;;;;;;;15.16;100.00;101995.78;4992719;28;20053;-68
2023/06/23 04:51:16;;;;;;;48.65;39.10;;;;;;;15.18;100.00;101999.91;4992539;28;20038;-68
2023/06/23 04:53:51;;;;;;;46.13;38.92;;;;;;;15.20;100.00;102000.44;4992580;28;20023;-68
2023/06/23 04:56:21;;;;;;;49.72;38.65;;;;;;;15.32;100.00;102013.03;4975028;28;20034;-68
2023/06/23 04:58:57;;;;;;;47.03;39.08;;;;;;;15.39;100.00;102007.84;4992716;28;20569;-68
2023/06/23 05:01:23;;;;;;;46.00;39.35;;;;;;;15.44;100.00;102011.38;4992585;28;20398;-68
2023/06/23 05:03:52;;;;;;;46.75;38.95;;;;;;;15.46;100.00;102005.47;4992557;28;20030;-68
2023/06/23 05:06:19;;;;;;;46.97;39.38;;;;;;;15.48;100.00;102014.34;4992814;28;20084;-69
2023/06/23 05:08:47;;;;;;;46.53;39.05;;;;;;;15.53;100.00;102014.28;4992513;28;20033;-69
2023/06/23 05:11:15;;;;;;;48.20;39.90;;;;;;;15.56;100.00;102015.59;4992379;28;20246;-68
2023/06/23 05:13:42;;;;;;;49.70;40.72;;;;;;;15.59;100.00;102012.16;4992425;28;20054;-68
2023/06/23 05:16:11;;;;;;;48.92;39.40;;;;;;;15.69;100.00;102022.28;4992485;28;20509;-69
2023/06/23 05:18:38;;;;;;;47.05;39.00;;;;;;;15.70;100.00;102021.16;4992585;28;20037;-69
2023/06/23 05:21:05;;;;;;;49.40;40.95;;;;;;;15.80;100.00;102020.09;5001280;28;20037;-69
2023/06/23 05:23:35;;;;;;;49.65;40.85;;;;;;;15.83;100.00;102027.84;5012076;28;20029;-68
2023/06/23 05:26:03;;;;;;;49.42;41.22;;;;;;;15.79;100.00;102013.69;5012043;28;20026;-69
2023/06/23 05:28:32;;;;;;;50.22;41.38;;;;;;;15.91;100.00;102029.91;5011538;28;20073;-69
2023/06/23 05:31:00;;;;;;;53.38;43.22;;;;;;;15.93;100.00;102030.44;5011918;28;20045;-69
2023/06/23 05:33:27;;;;;;;52.72;42.22;;;;;;;16.04;100.00;102040.22;5001446;28;20030;-69
2023/06/23 05:35:54;;;;;;;48.40;40.38;;;;;;;16.10;100.00;102040.09;4990868;28;20053;-69
2023/06/23 05:38:22;;;;;;;53.50;42.25;;;;;;;16.13;100.00;102043.09;4992256;28;20038;-69
2023/06/23 05:40:48;;;;;;;49.70;40.22;;;;;;;16.23;100.00;102042.03;4992221;28;20023;-69
2023/06/23 05:43:13;;;;;;;47.92;39.85;;;;;;;16.27;100.00;102058.97;4995699;28;20455;-69
2023/06/23 05:45:39;;;;;;;47.10;39.25;;;;;;;16.33;100.00;102047.38;4996397;28;20026;-70
2023/06/23 05:48:21;;;;;;;48.28;39.28;;;;;;;16.41;100.00;102053.34;5008680;28;20604;-68
2023/06/23 05:50:48;;;;;;;47.03;38.35;;;;;;;16.52;100.00;102049.16;5016385;28;20109;-69
2023/06/23 05:53:17;;;;;;;46.20;38.53;;;;;;;16.55;100.00;102053.28;5015766;28;20056;-67
2023/06/23 05:56:04;;;;;;;46.47;38.40;;;;;;;16.63;100.00;102067.28;5014308;28;20449;-69
2023/06/23 05:58:33;;;;;;;47.50;38.20;;;;;;;16.69;100.00;102070.78;5015606;28;20030;-67
2023/06/23 06:01:02;;;;;;;47.15;37.78;;;;;;;16.79;100.00;102061.34;5015751;28;20018;-68
2023/06/23 06:03:40;;;;;;;44.22;35.95;;;;;;;16.90;100.00;102062.72;5015833;28;20121;-70
2023/06/23 06:06:07;;;;;;;43.42;36.88;;;;;;;16.93;100.00;102073.28;5015752;28;20022;-68
2023/06/23 06:08:35;;;;;;;45.33;35.15;;;;;;;16.94;100.00;102065.72;5015493;28;20022;-68
2023/06/23 06:11:02;;;;;;;43.35;36.13;;;;;;;17.09;100.00;102078.47;5015809;28;20109;-67
2023/06/23 06:13:32;;;;;;;43.03;35.28;;;;;;;17.24;100.00;102080.03;5015561;28;20036;-67
2023/06/23 06:15:59;;;;;;;46.38;37.95;;;;;;;17.43;100.00;102086.19;5012391;28;20042;-67
2023/06/23 06:18:25;;;;;;;44.67;35.95;;;;;;;17.54;100.00;102094.28;4976203;28;20030;-68
2023/06/23 06:20:52;;;;;;;43.28;36.05;;;;;;;17.60;100.00;102090.22;4976113;28;20101;-67
2023/06/23 06:23:20;;;;;;;41.60;35.97;;;;;;;17.62;100.00;102083.13;4976001;28;20035;-67
2023/06/23 06:25:49;;;;;;;41.72;35.85;;;;;;;17.60;100.00;102098.59;4990711;28;20074;-66
2023/06/23 06:28:16;;;;;;;42.83;36.58;;;;;;;17.60;100.00;102105.00;4975946;28;20057;-67
2023/06/23 06:30:42;;;;;;;42.85;36.05;;;;;;;17.53;100.00;102103.81;4974593;28;20035;-66
2023/06/23 06:33:12;;;;;;;43.92;36.42;;;;;;;17.54;100.00;102094.28;5006005;28;20040;-66
2023/06/23 06:35:40;;;;;;;43.95;37.67;;;;;;;17.57;100.00;102102.03;5015245;28;20026;-67
2023/06/23 06:38:06;;;;;;;44.20;37.10;;;;;;;17.69;100.00;102099.44;5014788;28;20049;-67
2023/06/23 06:40:34;;;;;;;42.08;36.28;;;;;;;17.86;100.00;102100.66;5014739;28;20022;-67
2023/06/23 06:42:59;;;;;;;45.83;38.55;;;;;;;17.91;100.00;102120.06;5014842;28;20072;-68
2023/06/23 06:45:25;;;;;;;44.08;38.03;;;;;;;17.89;100.00;102119.59;5014880;28;20069;-67
2023/06/23 06:47:54;;;;;;;43.33;36.45;;;;;;;17.89;100.00;102122.41;5014528;28;20033;-67
2023/06/23 06:50:21;;;;;;;44.05;38.83;;;;;;;17.99;100.00;102132.47;5009619;28;20064;-67
2023/06/23 06:52:48;;;;;;;42.72;37.72;;;;;;;18.05;100.00;102129.22;4973927;28;20022;-67
2023/06/23 06:55:18;;;;;;;45.17;37.88;;;;;;;18.19;100.00;102126.25;4973824;28;20110;-67
2023/06/23 06:57:45;;;;;;;43.88;36.70;;;;;;;18.32;100.00;102129.25;4974277;28;20098;-67
2023/06/23 07:00:11;;;;;;;42.97;37.95;;;;;;;18.40;100.00;102137.66;4974104;28;20085;-67
2023/06/23 07:02:39;;;;;;;41.28;36.40;;;;;;;18.50;100.00;102133.72;4981787;28;20034;-67
2023/06/23 07:05:05;;;;;;;42.28;37.42;;;;;;;18.79;100.00;102146.25;4993866;28;20046;-66
2023/06/23 07:07:34;;;;;;;43.75;38.10;;;;;;;18.92;100.00;102150.00;4993422;28;20027;-67
2023/06/23 07:09:59;;;;;;;42.38;36.83;;;;;;;18.99;100.00;102152.31;4992938;28;20058;-67
2023/06/23 07:12:24;;;;;;;42.40;37.80;;;;;;;19.04;100.00;102143.75;5006357;28;20077;-66
2023/06/23 07:14:50;;;;;;;43.38;37.75;;;;;;;19.09;100.00;102168.00;5012811;28;20041;-67
2023/06/23 07:17:15;;;;;;;42.80;37.67;;;;;;;19.09;100.00;102154.78;5012946;28;20030;-67
2023/06/23 07:19:41;;;;;;;41.80;35.30;;;;;;;19.07;100.00;102165.53;5012906;28;20467;-67
2023/06/23 07:22:07;;;;;;;41.20;35.92;;;;;;;18.83;100.00;102166.81;5012783;28;20045;-67
2023/06/23 07:24:32;;;;;;;41.72;35.70;;;;;;;18.79;100.00;102160.25;5012834;28;20030;-67
2023/06/23 07:26:58;;;;;;;41.63;35.65;;;;;;;18.90;100.00;102165.50;5012596;28;20116;-67
2023/06/23 07:29:23;;;;;;;40.60;35.00;;;;;;;18.91;100.00;102176.41;5012531;28;20061;-67
2023/06/23 07:31:49;;;;;;;40.80;35.47;;;;;;;18.94;100.00;102178.56;5012999;28;20393;-68
2023/06/23 07:34:14;;;;;;;40.55;33.92;;;;;;;18.86;100.00;102170.94;5012836;28;20477;-66
2023/06/23 07:36:39;;;;;;;41.40;36.15;;;;;;;18.82;100.00;102172.78;5012611;28;20351;-69
2023/06/23 07:39:05;;;;;;;40.55;33.53;;;;;;;18.79;100.00;102174.28;5012446;28;20060;-67
2023/06/23 07:41:30;;;;;;;40.47;32.65;;;;;;;18.84;100.00;102165.69;5012480;28;20061;-67
2023/06/23 07:43:56;;;;;;;37.10;32.95;;;;;;;18.82;100.00;102178.38;5011874;28;20030;-67
2023/06/23 07:46:21;;;;;;;40.05;33.35;;;;;;;18.91;100.00;102179.19;5012250;28;20780;-67
2023/06/23 07:48:46;;;;;;;40.03;33.55;;;;;;;18.93;100.00;102187.31;5012649;28;20030;-69
2023/06/23 07:51:12;;;;;;;37.95;32.45;;;;;;;18.98;100.00;102181.53;5010617;28;20034;-68
2023/06/23 07:53:37;;;;;;;38.65;32.60;;;;;;;19.01;100.00;102183.66;5012241;28;20037;-68
2023/06/23 07:56:02;;;;;;;35.97;31.08;;;;;;;19.22;100.00;102181.00;5011981;28;20564;-67
2023/06/23 07:58:28;;;;;;;35.45;30.52;;;;;;;19.35;100.00;102178.31;5011824;28;20053;-68
2023/06/23 08:00:53;;;;;;;37.50;31.35;;;;;;;19.45;100.00;102173.19;5011958;28;20062;-69
2023/06/23 08:03:19;;;;;;;35.97;30.38;;;;;;;19.42;100.00;102178.63;5011895;28;20172;-68
2023/06/23 08:05:44;;;;;;;34.30;28.05;;;;;;;19.48;100.00;102178.13;5010576;28;20057;-66
2023/06/23 08:08:10;;;;;;;37.38;30.92;;;;;;;19.48;100.00;102183.72;5004502;28;20482;-67
2023/06/23 08:10:35;;;;;;;35.65;29.40;;;;;;;19.44;97.63;102187.53;4991961;28;20377;-67
2023/06/23 08:13:01;;;;;;;34.50;28.27;;;;;;;19.48;98.15;102183.72;4992890;28;20390;-68
2023/06/23 08:15:26;;;;;;;32.70;27.58;;;;;;;19.52;95.51;102185.88;4993422;28;20489;-68
2023/06/23 08:17:51;;;;;;;31.45;26.10;;;;;;;19.64;98.17;102178.41;4993497;28;20092;-68
2023/06/23 08:20:17;;;;;;;34.38;29.60;;;;;;;19.69;96.75;102180.19;4994302;28;20497;-70
2023/06/23 08:22:42;;;;;;;32.85;27.10;;;;;;;19.82;97.00;102186.75;4994069;28;20165;-67
2023/06/23 08:25:08;;;;;;;34.05;28.05;;;;;;;19.86;95.88;102186.91;4993588;28;20030;-68
2023/06/23 08:27:33;;;;;;;33.13;27.50;;;;;;;19.96;98.29;102186.53;4993475;28;20041;-67
2023/06/23 08:29:59;;;;;;;33.05;27.90;;;;;;;19.95;94.75;102194.16;4993261;28;20062;-69
2023/06/23 08:32:24;;;;;;;32.88;27.20;;;;;;;20.01;94.07;102189.16;4993800;28;20639;-68
2023/06/23 08:34:50;;;;;;;34.35;28.00;;;;;;;20.07;96.11;102185.00;4993730;28;20050;-66
2023/06/23 08:37:15;;;;;;;36.55;28.83;;;;;;;20.20;97.52;102185.91;4992183;28;20033;-65
2023/06/23 08:39:41;;;;;;;32.70;26.42;;;;;;;20.32;95.22;102185.16;4991992;28;20045;-63
2023/06/23 08:42:07;;;;;;;34.70;28.15;;;;;;;20.47;96.54;102183.75;4991722;28;20523;-66
2023/06/23 08:44:35;;;;;;;32.13;27.55;;;;;;;20.54;95.49;102172.78;4991811;28;20034;-66
2023/06/23 08:47:04;;;;;;;32.75;26.15;;;;;;;20.61;90.56;102203.16;4991849;28;20395;-67
2023/06/23 08:49:34;;;;;;;33.13;26.83;;;;;;;20.62;90.30;102207.59;4991880;28;20038;-68
2023/06/23 08:52:01;;;;;;;30.73;26.65;;;;;;;20.62;88.85;102207.59;4992040;28;20043;-68
2023/06/23 08:54:27;;;;;;;31.48;26.80;;;;;;;20.80;93.20;102204.69;4991704;28;20148;-67
2023/06/23 08:56:53;;;;;;;31.98;27.05;;;;;;;20.90;92.22;102218.34;4991667;28;20046;-67
2023/06/23 08:59:18;;;;;;;32.17;27.25;;;;;;;21.00;90.22;102212.28;4991504;28;20066;-68
2023/06/23 09:01:43;;;;;;;31.77;26.95;;;;;;;21.13;90.51;102217.97;4991611;28;20042;-68
2023/06/23 09:04:09;;;;;;;30.08;25.52;;;;;;;21.12;87.71;102222.75;4991393;28;20107;-67
2023/06/23 09:06:34;;;;;;;28.45;23.23;;;;;;;21.22;86.15;102223.50;4992000;28;20066;-68
2023/06/23 09:08:59;;;;;;;28.83;22.58;;;;;;;21.15;81.33;102227.72;4993732;28;20533;-68
2023/06/23 09:11:25;;;;;;;25.98;20.63;;;;;;;21.26;81.90;102224.47;4994540;28;20030;-67
2023/06/23 09:13:52;;;;;;;26.20;20.58;;;;;;;21.26;81.59;102222.47;4992624;28;20026;-68
2023/06/23 09:16:18;;;;;;;28.88;22.17;;;;;;;21.45;80.97;102238.84;4991609;28;20038;-68
2023/06/23 09:18:47;;;;;;;27.35;22.02;;;;;;;21.47;82.48;102230.03;4991474;28;20530;-68
2023/06/23 09:21:12;;;;;;;28.10;21.73;;;;;;;21.59;82.26;102241.38;4989930;28;20133;-68
2023/06/23 09:23:38;;;;;;;27.13;21.25;;;;;;;21.57;79.92;102226.78;4991497;28;20161;-68
2023/06/23 09:26:04;;;;;;;26.83;21.55;;;;;;;21.60;78.92;102236.53;4991548;28;20034;-68
2023/06/23 09:28:38;;;;;;;23.80;18.77;;;;;;;21.64;75.98;102240.31;4991252;28;20355;-68
2023/06/23 09:31:15;;;;;;;26.58;19.23;;;;;;;21.78;77.56;102248.44;4991780;28;20045;-68
2023/06/23 09:33:49;;;;;;;25.30;18.85;;;;;;;21.86;77.24;102247.50;4991866;28;20038;-68
2023/06/23 09:36:15;;;;;;;24.77;19.10;;;;;;;21.96;77.53;102252.69;4991549;28;20121;-69
2023/06/23 09:38:40;;;;;;;26.17;20.08;;;;;;;22.08;76.77;102249.06;4991581;28;20101;-69
2023/06/23 09:41:15;;;;;;;27.33;19.83;;;;;;;22.25;78.79;102239.53;4991107;28;20344;-68
2023/06/23 09:43:42;;;;;;;28.25;20.08;;;;;;;22.32;76.96;102250.25;4991112;28;20035;-69
2023/06/23 09:46:09;;;;;;;25.42;20.00;;;;;;;22.39;76.34;102246.81;4991470;28;20467;-68
2023/06/23 09:48:35;;;;;;;23.60;18.00;;;;;;;22.53;75.43;102257.78;4991398;28;20041;-68
2023/06/23 09:51:02;;;;;;;24.27;19.10;;;;;;;22.57;72.35;102253.88;4991623;28;20026;-67
2023/06/23 09:53:32;;;;;;;23.30;17.63;;;;;;;22.70;72.97;102251.03;4991512;28;20038;-68
2023/06/23 09:55:59;;;;;;;25.75;20.20;;;;;;;22.81;71.91;102260.63;4990339;28;20026;-68
2023/06/23 09:58:28;;;;;;;23.48;18.38;;;;;;;22.98;72.14;102256.72;4991791;28;20038;-69
2023/06/23 10:01:04;;;;;;;23.10;16.45;;;;;;;23.11;71.21;102262.28;4991685;28;20394;-68
2023/06/23 10:03:30;;;;;;;22.77;16.42;;;;;;;22.94;69.70;102254.97;4991889;28;20089;-69
2023/06/23 10:05:57;;;;;;;23.88;17.33;;;;;;;23.03;69.52;102255.63;4991403;28;20079;-68
2023/06/23 10:08:24;;;;;;;23.38;17.60;;;;;;;23.25;70.69;102257.09;4989940;28;20430;-67
2023/06/23 10:10:49;;;;;;;25.00;19.75;;;;;;;23.35;70.55;102250.09;4999902;28;20529;-68
2023/06/23 10:13:15;;;;;;;22.63;16.20;;;;;;;23.44;69.38;102255.59;5010191;28;20029;-68
2023/06/23 10:15:42;;;;;;;21.80;15.32;;;;;;;23.47;70.55;102255.69;5011006;28;20034;-68
2023/06/23 10:18:10;;;;;;;22.35;15.70;;;;;;;23.44;68.67;102253.59;4997314;28;20379;-68
2023/06/23 10:20:36;;;;;;;21.25;14.80;;;;;;;23.50;67.32;102249.34;4971905;28;20743;-67
2023/06/23 10:23:02;;;;;;;23.38;15.23;;;;;;;23.64;64.71;102254.56;4973773;28;20062;-67
2023/06/23 10:25:28;;;;;;;21.13;14.55;;;;;;;23.66;64.47;102245.69;4988572;28;20439;-69
2023/06/23 10:27:57;;;;;;;22.50;15.35;;;;;;;23.62;62.89;102248.44;5010886;28;20088;-68
2023/06/23 10:30:25;;;;;;;21.00;14.40;;;;;;;23.74;64.74;102250.34;5014495;28;20116;-68
2023/06/23 10:32:55;;;;;;;19.95;13.38;;;;;;;23.69;63.18;102250.63;5014181;28;20022;-68
2023/06/23 10:35:22;;;;;;;20.05;14.38;;;;;;;23.52;60.80;102258.25;5014190;28;20087;-68
2023/06/23 10:37:48;;;;;;;21.40;14.60;;;;;;;23.60;64.79;102250.00;5014219;28;20026;-68
2023/06/23 10:40:19;;;;;;;22.05;15.20;;;;;;;23.72;65.52;102249.88;5013913;28;20030;-68
2023/06/23 10:42:47;;;;;;;22.77;14.98;;;;;;;23.75;64.22;102246.34;5014852;28;20069;-68
2023/06/23 10:45:13;;;;;;;23.13;15.25;;;;;;;23.86;64.65;102245.81;5013930;28;20041;-69
2023/06/23 10:47:39;;;;;;;20.73;14.50;;;;;;;23.93;62.66;102258.13;5014203;28;20026;-68
2023/06/23 10:50:07;;;;;;;22.25;13.80;;;;;;;23.79;63.94;102247.28;5014430;28;20041;-68
2023/06/23 10:52:32;;;;;;;21.30;14.88;;;;;;;23.74;62.15;102261.66;5014254;28;20461;-69
2023/06/23 10:54:58;;;;;;;21.90;14.52;;;;;;;23.78;62.94;102256.09;5014072;28;20057;-69
2023/06/23 10:57:23;;;;;;;22.50;13.98;;;;;;;23.66;62.83;102262.66;5008742;28;20398;-68
2023/06/23 11:00:00;;;;;;;21.00;14.85;;;;;;;23.56;66.41;102241.44;4994331;28;20034;-69
2023/06/23 11:02:26;;;;;;;21.65;14.30;;;;;;;23.83;64.78;102256.66;4994101;28;20478;-68
2023/06/23 11:04:57;;;;;;;20.85;13.70;;;;;;;24.02;63.45;102269.25;4994305;28;20030;-69
2023/06/23 11:07:23;;;;;;;19.23;12.80;;;;;;;23.95;57.02;102261.41;4994224;28;20034;-68